Time,TemperatureF,DewpointF,PressureIn,WindDirection,WindDirectionDegrees,WindSpeedMPH,WindSpeedGustMPH,Humidity,HourlyPrecipIn,Conditions,Clouds,dailyrainin,SolarRadiationWatts/m^2,SoftwareType,DateUTC
2013-12-27 00:13:00,20.9,14.0,30.61,NE,37,4.0,-999.0,75,-99.99,,,0.00,0,weatherlink.com 1.10,2013-12-27 07:13:00,
2013-12-27 00:28:00,20.9,14.0,30.60,NE,34,3.0,-999.0,75,-99.99,,,0.00,0,weatherlink.com 1.10,2013-12-27 07:28:00,
2013-12-27 00:43:00,20.0,14.0,30.60,NNE,33,4.0,-999.0,77,-99.99,,,0.00,0,weatherlink.com 1.10,2013-12-27 07:43:00,
2013-12-27 00:58:00,19.9,14.0,30.59,NNE,32,2.0,-999.0,78,-99.99,,,0.00,0,weatherlink.com 1.10,2013-12-27 07:58:00,
2013-12-27 01:13:00,20.4,15.0,30.60,NE,38,5.0,-999.0,79,-99.99,,,0.00,0,weatherlink.com 1.10,2013-12-27 08:13:00,
2013-12-27 01:28:00,20.3,14.0,30.60,NE,38,4.0,-999.0,78,-99.99,,,0.00,0,weatherlink.com 1.10,2013-12-27 08:28:00,
2013-12-27 01:43:00,20.6,15.0,30.59,NE,37,1.0,-999.0,79,-99.99,,,0.00,0,weatherlink.com 1.10,2013-12-27 08:43:00,
2013-12-27 01:58:00,21.5,16.0,30.59,NE,38,0.0,-999.0,80,-99.99,,,0.00,0,weatherlink.com 1.10,2013-12-27 08:58:00,
2013-12-27 02:14:00,20.4,14.0,30.60,SE,130,5.0,-999.0,77,-99.99,,,0.00,0,weatherlink.com 1.10,2013-12-27 09:14:00,
2013-12-27 02:29:00,19.5,14.0,30.61,SE,126,0.0,-999.0,79,-99.99,,,0.00,0,weatherlink.com 1.10,2013-12-27 09:29:00,
2013-12-27 02:44:00,19.7,15.0,30.61,ENE,74,2.0,-999.0,80,-99.99,,,0.00,0,weatherlink.com 1.10,2013-12-27 09:44:00,
2013-12-27 02:59:00,19.9,15.0,30.61,ENE,74,0.0,-999.0,81,-99.99,,,0.00,0,weatherlink.com 1.10,2013-12-27 09:59:00,
2013-12-27 03:14:00,20.6,16.0,30.61,WNW,291,0.0,-999.0,81,-99.99,,,0.00,0,weatherlink.com 1.10,2013-12-27 10:14:00,
2013-12-27 03:29:00,19.6,14.0,30.61,NW,304,0.0,-999.0,78,-99.99,,,0.00,0,weatherlink.com 1.10,2013-12-27 10:29:00,
2013-12-27 03:44:00,20.6,16.0,30.61,NNW,333,2.0,-999.0,81,-99.99,,,0.00,0,weatherlink.com 1.10,2013-12-27 10:44:00,
2013-12-27 03:59:00,21.1,15.0,30.60,NE,39,5.0,-999.0,78,-99.99,,,0.00,0,weatherlink.com 1.10,2013-12-27 10:59:00,
2013-12-27 04:14:00,21.3,16.0,30.60,NE,47,0.0,-999.0,80,-99.99,,,0.00,0,weatherlink.com 1.10,2013-12-27 11:14:00,
2013-12-27 04:29:00,24.5,18.0,30.60,NE,47,0.0,-999.0,75,-99.99,,,0.00,0,weatherlink.com 1.10,2013-12-27 11:29:00,
2013-12-27 04:44:00,25.7,18.0,30.59,SE,131,5.0,-999.0,73,-99.99,,,0.00,0,weatherlink.com 1.10,2013-12-27 11:44:00,
2013-12-27 04:59:00,24.8,17.0,30.59,SE,132,2.0,-999.0,73,-99.99,,,0.00,0,weatherlink.com 1.10,2013-12-27 11:59:00,
2013-12-27 05:15:00,23.2,16.0,30.59,ESE,121,7.0,-999.0,74,-99.99,,,0.00,0,weatherlink.com 1.10,2013-12-27 12:15:00,
2013-12-27 05:29:00,22.1,15.0,30.60,ENE,70,1.0,-999.0,75,-99.99,,,0.00,0,weatherlink.com 1.10,2013-12-27 12:29:00,
2013-12-27 05:44:00,18.6,12.0,30.61,NE,43,5.0,-999.0,74,-99.99,,,0.00,0,weatherlink.com 1.10,2013-12-27 12:44:00,
2013-12-27 05:59:00,17.6,13.0,30.61,NNE,20,3.0,-999.0,81,-99.99,,,0.00,0,weatherlink.com 1.10,2013-12-27 12:59:00,
2013-12-27 06:14:00,17.4,13.0,30.61,NE,35,4.0,-999.0,82,-99.99,,,0.00,0,weatherlink.com 1.10,2013-12-27 13:14:00,
2013-12-27 06:29:00,16.4,12.0,30.61,NNE,30,2.0,-999.0,83,-99.99,,,0.00,0,weatherlink.com 1.10,2013-12-27 13:29:00,
2013-12-27 06:44:00,16.3,12.0,30.62,NNE,30,0.0,-999.0,84,-99.99,,,0.00,0,weatherlink.com 1.10,2013-12-27 13:44:00,
2013-12-27 06:59:00,15.9,12.0,30.63,NNE,30,0.0,-999.0,85,-99.99,,,0.00,0,weatherlink.com 1.10,2013-12-27 13:59:00,
2013-12-27 07:14:00,15.9,12.0,30.63,NNE,30,2.0,-999.0,85,-99.99,,,0.00,0,weatherlink.com 1.10,2013-12-27 14:14:00,
2013-12-27 07:29:00,15.6,12.0,30.64,NNE,28,0.0,-999.0,85,-99.99,,,0.00,0,weatherlink.com 1.10,2013-12-27 14:29:00,
2013-12-27 07:44:00,15.2,12.0,30.64,NNE,29,3.0,-999.0,86,-99.99,,,0.00,0,weatherlink.com 1.10,2013-12-27 14:44:00,
2013-12-27 07:59:00,14.6,11.0,30.64,NE,34,3.0,-999.0,86,-99.99,,,0.00,12,weatherlink.com 1.10,2013-12-27 14:59:00,
2013-12-27 08:14:00,15.2,12.0,30.65,NE,37,3.0,-999.0,87,-99.99,,,0.00,47,weatherlink.com 1.10,2013-12-27 15:14:00,
2013-12-27 08:29:00,16.6,13.0,30.65,NE,38,3.0,-999.0,87,-99.99,,,0.00,84,weatherlink.com 1.10,2013-12-27 15:29:00,
2013-12-27 08:44:00,18.0,15.0,30.66,NNW,348,1.0,-999.0,86,-99.99,,,0.00,125,weatherlink.com 1.10,2013-12-27 15:44:00,
2013-12-27 08:59:00,19.5,15.0,30.66,NNE,30,3.0,-999.0,83,-99.99,,,0.00,149,weatherlink.com 1.10,2013-12-27 15:59:00,
2013-12-27 09:14:00,21.1,16.0,30.66,NE,35,3.0,-999.0,81,-99.99,,,0.00,190,weatherlink.com 1.10,2013-12-27 16:14:00,
2013-12-27 09:29:00,22.9,17.0,30.67,North,5,0.0,-999.0,79,-99.99,,,0.00,234,weatherlink.com 1.10,2013-12-27 16:29:00,
2013-12-27 09:45:00,26.1,20.0,30.67,NW,311,0.0,-999.0,76,-99.99,,,0.00,272,weatherlink.com 1.10,2013-12-27 16:45:00,
2013-12-27 10:00:00,28.8,20.0,30.67,NNE,17,2.0,-999.0,70,-99.99,,,0.00,302,weatherlink.com 1.10,2013-12-27 17:00:00,
2013-12-27 10:15:00,28.9,20.0,30.67,North,350,0.0,-999.0,70,-99.99,,,0.00,332,weatherlink.com 1.10,2013-12-27 17:15:00,
2013-12-27 10:30:00,31.0,21.0,30.66,North,355,0.0,-999.0,67,-99.99,,,0.00,357,weatherlink.com 1.10,2013-12-27 17:30:00,
2013-12-27 10:45:00,32.0,21.0,30.66,North,355,2.0,-999.0,64,-99.99,,,0.00,381,weatherlink.com 1.10,2013-12-27 17:45:00,
2013-12-27 11:00:00,31.7,21.0,30.65,NNE,14,3.0,-999.0,64,-99.99,,,0.00,401,weatherlink.com 1.10,2013-12-27 18:00:00,
2013-12-27 11:15:00,31.6,21.0,30.64,NE,41,4.0,-999.0,65,-99.99,,,0.00,418,weatherlink.com 1.10,2013-12-27 18:15:00,
2013-12-27 11:30:00,31.5,21.0,30.64,NNE,17,7.0,-999.0,66,-99.99,,,0.00,431,weatherlink.com 1.10,2013-12-27 18:30:00,
2013-12-27 11:45:00,33.4,22.0,30.62,NE,42,3.0,-999.0,64,-99.99,,,0.00,439,weatherlink.com 1.10,2013-12-27 18:45:00,
2013-12-27 12:00:00,37.0,23.0,30.61,NW,325,0.0,-999.0,57,-99.99,,,0.00,446,weatherlink.com 1.10,2013-12-27 19:00:00,
2013-12-27 12:15:00,39.1,24.0,30.60,NW,325,0.0,-999.0,54,-99.99,,,0.00,450,weatherlink.com 1.10,2013-12-27 19:15:00,
2013-12-27 12:30:00,40.0,23.0,30.59,North,5,0.0,-999.0,52,-99.99,,,0.00,446,weatherlink.com 1.10,2013-12-27 19:30:00,
2013-12-27 12:45:00,39.8,23.0,30.58,NNE,17,0.0,-999.0,51,-99.99,,,0.00,443,weatherlink.com 1.10,2013-12-27 19:45:00,
2013-12-27 13:00:00,41.0,23.0,30.58,NE,34,0.0,-999.0,50,-99.99,,,0.00,396,weatherlink.com 1.10,2013-12-27 20:00:00,
2013-12-27 13:15:00,41.0,24.0,30.57,North,355,0.0,-999.0,51,-99.99,,,0.00,406,weatherlink.com 1.10,2013-12-27 20:15:00,
2013-12-27 13:30:00,41.1,24.0,30.56,North,355,0.0,-999.0,52,-99.99,,,0.00,366,weatherlink.com 1.10,2013-12-27 20:30:00,
2013-12-27 13:45:00,41.3,25.0,30.55,NNE,32,0.0,-999.0,53,-99.99,,,0.00,288,weatherlink.com 1.10,2013-12-27 20:45:00,
2013-12-27 14:00:00,41.8,26.0,30.54,NNE,26,3.0,-999.0,53,-99.99,,,0.00,364,weatherlink.com 1.10,2013-12-27 21:00:00,
2013-12-27 14:15:00,39.2,24.0,30.54,NE,36,5.0,-999.0,55,-99.99,,,0.00,116,weatherlink.com 1.10,2013-12-27 21:15:00,
2013-12-27 14:30:00,38.6,25.0,30.53,NE,46,4.0,-999.0,58,-99.99,,,0.00,281,weatherlink.com 1.10,2013-12-27 21:30:00,
2013-12-27 14:45:00,37.1,23.0,30.52,ENE,57,8.0,-999.0,58,-99.99,,,0.00,274,weatherlink.com 1.10,2013-12-27 21:45:00,
2013-12-27 15:00:00,35.4,23.0,30.52,NE,38,6.0,-999.0,62,-99.99,,,0.00,232,weatherlink.com 1.10,2013-12-27 22:00:00,
2013-12-27 15:15:00,34.4,22.0,30.52,NE,52,8.0,-999.0,62,-99.99,,,0.00,188,weatherlink.com 1.10,2013-12-27 22:15:00,
2013-12-27 15:31:00,34.0,22.0,30.52,NE,55,5.0,-999.0,63,-99.99,,,0.00,141,weatherlink.com 1.10,2013-12-27 22:31:00,
2013-12-27 15:46:00,34.2,23.0,30.51,ENE,62,5.0,-999.0,63,-99.99,,,0.00,79,weatherlink.com 1.10,2013-12-27 22:46:00,
2013-12-27 16:01:00,33.7,22.0,30.51,NE,44,6.0,-999.0,63,-99.99,,,0.00,58,weatherlink.com 1.10,2013-12-27 23:01:00,
2013-12-27 16:16:00,32.5,21.0,30.51,NE,53,3.0,-999.0,64,-99.99,,,0.00,26,weatherlink.com 1.10,2013-12-27 23:16:00,
2013-12-27 16:31:00,31.5,21.0,30.50,NE,47,3.0,-999.0,65,-99.99,,,0.00,11,weatherlink.com 1.10,2013-12-27 23:31:00,
2013-12-27 16:46:00,29.9,20.0,30.50,NE,51,0.0,-999.0,67,-99.99,,,0.00,0,weatherlink.com 1.10,2013-12-27 23:46:00,
2013-12-27 17:01:00,28.5,20.0,30.49,North,5,0.0,-999.0,70,-99.99,,,0.00,0,weatherlink.com 1.10,2013-12-28 00:01:00,
2013-12-27 17:16:00,28.6,20.0,30.49,North,9,0.0,-999.0,70,-99.99,,,0.00,0,weatherlink.com 1.10,2013-12-28 00:16:00,
2013-12-27 17:31:00,27.3,19.0,30.48,NNE,28,3.0,-999.0,72,-99.99,,,0.00,0,weatherlink.com 1.10,2013-12-28 00:31:00,
2013-12-27 17:46:00,26.0,18.0,30.48,NNE,19,2.0,-999.0,73,-99.99,,,0.00,0,weatherlink.com 1.10,2013-12-28 00:46:00,
2013-12-27 18:01:00,25.3,18.0,30.48,NNE,25,0.0,-999.0,74,-99.99,,,0.00,0,weatherlink.com 1.10,2013-12-28 01:01:00,
2013-12-27 18:16:00,25.1,18.0,30.47,North,11,3.0,-999.0,74,-99.99,,,0.00,0,weatherlink.com 1.10,2013-12-28 01:16:00,
2013-12-27 18:31:00,25.6,19.0,30.46,North,355,3.0,-999.0,75,-99.99,,,0.00,0,weatherlink.com 1.10,2013-12-28 01:31:00,
2013-12-27 18:46:00,26.3,18.0,30.46,North,355,0.0,-999.0,72,-99.99,,,0.00,0,weatherlink.com 1.10,2013-12-28 01:46:00,
2013-12-27 19:01:00,26.2,19.0,30.46,North,360,0.0,-999.0,73,-99.99,,,0.00,0,weatherlink.com 1.10,2013-12-28 02:01:00,
2013-12-27 19:16:00,26.2,19.0,30.46,NNE,15,0.0,-999.0,74,-99.99,,,0.00,0,weatherlink.com 1.10,2013-12-28 02:16:00,
2013-12-27 19:31:00,26.5,20.0,30.45,NNE,15,0.0,-999.0,75,-99.99,,,0.00,0,weatherlink.com 1.10,2013-12-28 02:31:00,
2013-12-27 19:46:00,26.7,19.0,30.45,North,5,0.0,-999.0,74,-99.99,,,0.00,0,weatherlink.com 1.10,2013-12-28 02:46:00,
2013-12-27 20:01:00,26.9,20.0,30.44,North,5,0.0,-999.0,74,-99.99,,,0.00,0,weatherlink.com 1.10,2013-12-28 03:01:00,
2013-12-27 20:16:00,26.7,20.0,30.44,North,5,0.0,-999.0,75,-99.99,,,0.00,0,weatherlink.com 1.10,2013-12-28 03:16:00,
2013-12-27 20:31:00,26.6,19.0,30.43,North,5,0.0,-999.0,74,-99.99,,,0.00,0,weatherlink.com 1.10,2013-12-28 03:31:00,
2013-12-27 20:46:00,26.2,19.0,30.42,NW,322,0.0,-999.0,75,-99.99,,,0.00,0,weatherlink.com 1.10,2013-12-28 03:46:00,
2013-12-27 21:01:00,25.9,19.0,30.42,NW,322,0.0,-999.0,75,-99.99,,,0.00,0,weatherlink.com 1.10,2013-12-28 04:01:00,
2013-12-27 21:16:00,25.6,19.0,30.41,NW,321,0.0,-999.0,77,-99.99,,,0.00,0,weatherlink.com 1.10,2013-12-28 04:16:00,
2013-12-27 21:31:00,26.4,20.0,30.40,WNW,294,0.0,-999.0,77,-99.99,,,0.00,0,weatherlink.com 1.10,2013-12-28 04:31:00,
2013-12-27 21:46:00,26.5,20.0,30.40,WNW,294,0.0,-999.0,76,-99.99,,,0.00,0,weatherlink.com 1.10,2013-12-28 04:46:00,
2013-12-27 22:01:00,26.4,20.0,30.39,WNW,292,0.0,-999.0,75,-99.99,,,0.00,0,weatherlink.com 1.10,2013-12-28 05:01:00,
2013-12-27 22:16:00,26.1,20.0,30.40,WNW,291,0.0,-999.0,76,-99.99,,,0.00,0,weatherlink.com 1.10,2013-12-28 05:16:00,
2013-12-27 22:31:00,26.1,20.0,30.39,WNW,292,0.0,-999.0,77,-99.99,,,0.00,0,weatherlink.com 1.10,2013-12-28 05:31:00,
2013-12-27 22:46:00,26.4,20.0,30.39,West,279,0.0,-999.0,76,-99.99,,,0.00,0,weatherlink.com 1.10,2013-12-28 05:46:00,
2013-12-27 23:01:00,26.2,20.0,30.38,West,279,0.0,-999.0,76,-99.99,,,0.00,0,weatherlink.com 1.10,2013-12-28 06:01:00,
2013-12-27 23:16:00,26.3,20.0,30.37,North,5,3.0,-999.0,77,-99.99,,,0.00,0,weatherlink.com 1.10,2013-12-28 06:16:00,
2013-12-27 23:31:00,25.5,19.0,30.37,North,11,0.0,-999.0,76,-99.99,,,0.00,0,weatherlink.com 1.10,2013-12-28 06:31:00,
2013-12-27 23:46:00,25.5,20.0,30.36,ENE,57,1.0,-999.0,78,-99.99,,,0.00,0,weatherlink.com 1.10,2013-12-28 06:46:00,